Qurghonteppa International Airport
UTDT : now visible

Airfield :











YOU CAN JOIN US ON...

 
LOGIN :

Register | Disclaimer

   EN    FR    IT 

 









Legend :    VFR   Marginal VFR   IFR   Intensive IFR   Very Intensive IFR
Visi :
Ceiling :
>= 8 km
>= 3000ft
5 to 8 km
1000 to 3000 ft
1500m to 5 km
500 to 1000 ft
800 to 1500m
200 to 500 ft
< 800m
< 200 ft
Symbols :   Thunderstorms  Fog  Heavy snow  Heavy precipitations  Wind > 20 kt






- Airport Elevation : 1473 ft
- IATA code : KQT


UTDT - Qurghonteppa International

CURRENT METAR :
  • 271200Z 16004MPS 130V190 7000 BKN009 OVC028 07/05 Q1022 R35/19//60 RMK QFE727/0969

EXPIRED METARs :
  • 271130Z 16005MPS 4800 BR BKN009 OVC028 07/05 Q1022 R35/19//60 RMK QFE727/0969
  • 271100Z 17005MPS 4500 BR BKN008 OVC026 07/05 Q1022 R35/19//60 RMK QFE727/0969
  • 271030Z 17005MPS 3800 -RA BR BKN012 OVC026 07/05 Q1021 R35/19//60 RMK QFE726/0969
  • 271000Z 17005MPS 3300 -RA BR BKN012 OVC026 07/06 Q1021 R35/19//60 RMK QFE726/0968
  • 270930Z 17006MPS 3700 BR BKN012 OVC026 08/05 Q1021 R35/19//60 RMK QFE726/0968
  • 270900Z 17006MPS 6000 BKN015 OVC031 08/05 Q1021 R35/19//60 RMK QFE726/0968

TAF TAF UTDT
Valid from the 27 at 10:00 until the 27 at 19:00 UTC


270900Z 2710/2719 17005MPS 3100 -RA BR SCT011 BKN020 OVC030
TEMPO 2710/2719 19008G13MPS 1000 RASN BR



MET'MAP, your aeronautical weather chart ! - Copyright ORBIFLY December 2007 - Disclaimer

ORBIFLY MET'MAP TEAM :

Programming & Development : Alexandra Zaïnal
Concept & original design : Baudouin d'Aumeries
Assistance for programming : Marc-Olivier Méhu
Technical & hardware support : Manuel Goepfert

Contact : metmap@orbifly.com




SOURCES & CREDITS :

   NOAA       Earth
Advisory